sensor_id;sensor_type;location;lat;lon;timestamp;temperature;humidity
51801;DHT22;37855;53.204;6.568;2023-11-21T00:00:15;9.70;84.00
51801;DHT22;37855;53.204;6.568;2023-11-21T00:02:41;9.70;84.00
51801;DHT22;37855;53.204;6.568;2023-11-21T00:05:11;9.70;84.10
51801;DHT22;37855;53.204;6.568;2023-11-21T00:07:39;9.70;84.10
51801;DHT22;37855;53.204;6.568;2023-11-21T00:10:06;9.70;84.00
51801;DHT22;37855;53.204;6.568;2023-11-21T00:12:32;9.70;84.10
51801;DHT22;37855;53.204;6.568;2023-11-21T00:14:59;9.70;84.10
51801;DHT22;37855;53.204;6.568;2023-11-21T00:17:24;9.80;84.10
51801;DHT22;37855;53.204;6.568;2023-11-21T00:19:50;9.80;84.10
51801;DHT22;37855;53.204;6.568;2023-11-21T00:22:18;9.80;84.10
51801;DHT22;37855;53.204;6.568;2023-11-21T00:24:44;9.80;84.10
51801;DHT22;37855;53.204;6.568;2023-11-21T00:27:09;9.80;84.00
51801;DHT22;37855;53.204;6.568;2023-11-21T00:29:35;9.80;84.10
51801;DHT22;37855;53.204;6.568;2023-11-21T00:32:01;9.80;84.00
51801;DHT22;37855;53.204;6.568;2023-11-21T00:34:27;9.80;84.10
51801;DHT22;37855;53.204;6.568;2023-11-21T00:36:53;9.80;84.10
51801;DHT22;37855;53.204;6.568;2023-11-21T00:39:24;9.80;84.00
51801;DHT22;37855;53.204;6.568;2023-11-21T00:41:52;9.80;84.10
51801;DHT22;37855;53.204;6.568;2023-11-21T00:44:18;9.80;84.10
51801;DHT22;37855;53.204;6.568;2023-11-21T00:46:47;9.80;84.10
51801;DHT22;37855;53.204;6.568;2023-11-21T00:49:12;9.80;84.10
51801;DHT22;37855;53.204;6.568;2023-11-21T00:51:38;9.80;84.20
51801;DHT22;37855;53.204;6.568;2023-11-21T00:54:04;9.80;84.20
51801;DHT22;37855;53.204;6.568;2023-11-21T00:56:30;9.70;84.20
51801;DHT22;37855;53.204;6.568;2023-11-21T00:58:56;9.80;84.20
51801;DHT22;37855;53.204;6.568;2023-11-21T01:01:22;9.80;84.20
51801;DHT22;37855;53.204;6.568;2023-11-21T01:03:51;9.80;84.20
51801;DHT22;37855;53.204;6.568;2023-11-21T01:06:17;9.70;84.30
51801;DHT22;37855;53.204;6.568;2023-11-21T01:08:44;9.80;84.30
51801;DHT22;37855;53.204;6.568;2023-11-21T01:11:10;9.70;84.30
51801;DHT22;37855;53.204;6.568;2023-11-21T01:13:39;9.70;84.30
51801;DHT22;37855;53.204;6.568;2023-11-21T01:16:05;9.70;84.30
51801;DHT22;37855;53.204;6.568;2023-11-21T01:18:37;9.70;84.40
51801;DHT22;37855;53.204;6.568;2023-11-21T01:21:03;9.70;84.40
51801;DHT22;37855;53.204;6.568;2023-11-21T01:23:29;9.70;84.40
51801;DHT22;37855;53.204;6.568;2023-11-21T01:25:56;9.70;84.50
51801;DHT22;37855;53.204;6.568;2023-11-21T01:28:23;9.70;84.50
51801;DHT22;37855;53.204;6.568;2023-11-21T01:30:49;9.70;84.50
51801;DHT22;37855;53.204;6.568;2023-11-21T01:33:15;9.70;84.60
51801;DHT22;37855;53.204;6.568;2023-11-21T01:35:41;9.70;84.60
51801;DHT22;37855;53.204;6.568;2023-11-21T01:38:07;9.70;84.60
51801;DHT22;37855;53.204;6.568;2023-11-21T01:40:34;9.70;84.60
51801;DHT22;37855;53.204;6.568;2023-11-21T01:43:00;9.70;84.60
51801;DHT22;37855;53.204;6.568;2023-11-21T01:45:27;9.70;84.60
51801;DHT22;37855;53.204;6.568;2023-11-21T01:47:55;9.70;84.70
51801;DHT22;37855;53.204;6.568;2023-11-21T01:50:20;9.70;84.60
51801;DHT22;37855;53.204;6.568;2023-11-21T01:52:48;9.70;84.70
51801;DHT22;37855;53.204;6.568;2023-11-21T01:55:16;9.80;84.60
51801;DHT22;37855;53.204;6.568;2023-11-21T01:57:46;9.70;84.70
51801;DHT22;37855;53.204;6.568;2023-11-21T02:00:12;9.70;84.80
51801;DHT22;37855;53.204;6.568;2023-11-21T02:02:47;9.70;84.80
51801;DHT22;37855;53.204;6.568;2023-11-21T02:05:17;9.70;84.80
51801;DHT22;37855;53.204;6.568;2023-11-21T02:07:51;9.70;84.80
51801;DHT22;37855;53.204;6.568;2023-11-21T02:10:18;9.70;84.80
51801;DHT22;37855;53.204;6.568;2023-11-21T02:12:48;9.70;84.90
51801;DHT22;37855;53.204;6.568;2023-11-21T02:15:18;9.70;84.90
51801;DHT22;37855;53.204;6.568;2023-11-21T02:17:48;9.70;84.90
51801;DHT22;37855;53.204;6.568;2023-11-21T02:20:17;9.70;84.90
51801;DHT22;37855;53.204;6.568;2023-11-21T02:22:54;9.70;85.00
51801;DHT22;37855;53.204;6.568;2023-11-21T02:25:36;9.70;85.10
51801;DHT22;37855;53.204;6.568;2023-11-21T02:28:03;9.60;85.10
51801;DHT22;37855;53.204;6.568;2023-11-21T02:30:32;9.60;85.10
51801;DHT22;37855;53.204;6.568;2023-11-21T02:32:58;9.60;85.20
51801;DHT22;37855;53.204;6.568;2023-11-21T02:35:24;9.60;85.30
51801;DHT22;37855;53.204;6.568;2023-11-21T02:37:54;9.60;85.20
51801;DHT22;37855;53.204;6.568;2023-11-21T02:40:20;9.60;85.30
51801;DHT22;37855;53.204;6.568;2023-11-21T02:42:47;9.60;85.30
51801;DHT22;37855;53.204;6.568;2023-11-21T02:45:14;9.60;85.40
51801;DHT22;37855;53.204;6.568;2023-11-21T02:47:42;9.60;85.40
51801;DHT22;37855;53.204;6.568;2023-11-21T02:50:08;9.60;85.40
51801;DHT22;37855;53.204;6.568;2023-11-21T02:52:35;9.60;85.40
51801;DHT22;37855;53.204;6.568;2023-11-21T02:55:03;9.60;85.40
51801;DHT22;37855;53.204;6.568;2023-11-21T02:57:29;9.60;85.40
51801;DHT22;37855;53.204;6.568;2023-11-21T02:59:55;9.60;85.40
51801;DHT22;37855;53.204;6.568;2023-11-21T03:02:21;9.60;85.40
51801;DHT22;37855;53.204;6.568;2023-11-21T03:04:47;9.60;85.70
51801;DHT22;37855;53.204;6.568;2023-11-21T03:07:16;9.50;86.00
51801;DHT22;37855;53.204;6.568;2023-11-21T03:09:47;9.50;85.90
51801;DHT22;37855;53.204;6.568;2023-11-21T03:12:14;9.40;86.00
51801;DHT22;37855;53.204;6.568;2023-11-21T03:14:41;9.40;86.00
51801;DHT22;37855;53.204;6.568;2023-11-21T03:17:09;9.40;85.80
51801;DHT22;37855;53.204;6.568;2023-11-21T03:19:35;9.40;85.90
51801;DHT22;37855;53.204;6.568;2023-11-21T03:22:01;9.40;85.90
51801;DHT22;37855;53.204;6.568;2023-11-21T03:24:26;9.40;86.00
51801;DHT22;37855;53.204;6.568;2023-11-21T03:26:52;9.40;86.00
51801;DHT22;37855;53.204;6.568;2023-11-21T03:29:18;9.30;86.10
51801;DHT22;37855;53.204;6.568;2023-11-21T03:31:44;9.30;85.90
51801;DHT22;37855;53.204;6.568;2023-11-21T03:34:19;9.30;86.20
51801;DHT22;37855;53.204;6.568;2023-11-21T03:36:45;9.30;86.20
51801;DHT22;37855;53.204;6.568;2023-11-21T03:39:11;9.30;86.10
51801;DHT22;37855;53.204;6.568;2023-11-21T03:41:37;9.30;86.00
51801;DHT22;37855;53.204;6.568;2023-11-21T03:44:03;9.30;86.00
51801;DHT22;37855;53.204;6.568;2023-11-21T03:46:28;9.40;85.90
51801;DHT22;37855;53.204;6.568;2023-11-21T03:48:54;9.40;85.80
51801;DHT22;37855;53.204;6.568;2023-11-21T03:51:21;9.40;85.80
51801;DHT22;37855;53.204;6.568;2023-11-21T03:53:47;9.40;85.90
51801;DHT22;37855;53.204;6.568;2023-11-21T03:56:14;9.40;85.70
51801;DHT22;37855;53.204;6.568;2023-11-21T03:58:42;9.40;85.80
51801;DHT22;37855;53.204;6.568;2023-11-21T04:01:11;9.40;85.80
51801;DHT22;37855;53.204;6.568;2023-11-21T04:03:37;9.40;85.70
51801;DHT22;37855;53.204;6.568;2023-11-21T04:06:02;9.40;85.70
51801;DHT22;37855;53.204;6.568;2023-11-21T04:08:28;9.50;85.70
51801;DHT22;37855;53.204;6.568;2023-11-21T04:10:53;9.50;85.80
51801;DHT22;37855;53.204;6.568;2023-11-21T04:13:20;9.40;85.70
51801;DHT22;37855;53.204;6.568;2023-11-21T04:15:46;9.40;85.90
51801;DHT22;37855;53.204;6.568;2023-11-21T04:18:11;9.30;85.80
51801;DHT22;37855;53.204;6.568;2023-11-21T04:20:37;9.30;85.80
51801;DHT22;37855;53.204;6.568;2023-11-21T04:23:02;9.30;85.80
51801;DHT22;37855;53.204;6.568;2023-11-21T04:25:28;9.30;85.90
51801;DHT22;37855;53.204;6.568;2023-11-21T04:27:54;9.20;86.00
51801;DHT22;37855;53.204;6.568;2023-11-21T04:30:20;9.20;86.10
51801;DHT22;37855;53.204;6.568;2023-11-21T04:32:46;9.20;86.10
51801;DHT22;37855;53.204;6.568;2023-11-21T04:35:12;9.20;85.90
51801;DHT22;37855;53.204;6.568;2023-11-21T04:37:40;9.20;85.90
51801;DHT22;37855;53.204;6.568;2023-11-21T04:40:07;9.20;85.80
51801;DHT22;37855;53.204;6.568;2023-11-21T04:42:36;9.20;86.00
51801;DHT22;37855;53.204;6.568;2023-11-21T04:45:07;9.20;86.10
51801;DHT22;37855;53.204;6.568;2023-11-21T04:47:37;9.20;86.00
51801;DHT22;37855;53.204;6.568;2023-11-21T04:50:04;9.10;86.40
51801;DHT22;37855;53.204;6.568;2023-11-21T04:52:30;9.10;86.60
51801;DHT22;37855;53.204;6.568;2023-11-21T04:54:55;9.10;86.40
51801;DHT22;37855;53.204;6.568;2023-11-21T04:57:24;9.10;86.40
51801;DHT22;37855;53.204;6.568;2023-11-21T04:59:49;9.10;86.10
51801;DHT22;37855;53.204;6.568;2023-11-21T05:02:16;9.20;86.30
51801;DHT22;37855;53.204;6.568;2023-11-21T05:04:41;9.20;86.40
51801;DHT22;37855;53.204;6.568;2023-11-21T05:07:12;9.10;86.40
51801;DHT22;37855;53.204;6.568;2023-11-21T05:09:44;9.10;86.40
51801;DHT22;37855;53.204;6.568;2023-11-21T05:12:12;9.10;86.20
51801;DHT22;37855;53.204;6.568;2023-11-21T05:14:38;9.10;86.20
51801;DHT22;37855;53.204;6.568;2023-11-21T05:17:04;9.10;86.30
51801;DHT22;37855;53.204;6.568;2023-11-21T05:19:29;9.10;86.30
51801;DHT22;37855;53.204;6.568;2023-11-21T05:21:55;9.10;86.50
51801;DHT22;37855;53.204;6.568;2023-11-21T05:24:21;9.10;86.50
51801;DHT22;37855;53.204;6.568;2023-11-21T05:26:46;9.00;86.70
51801;DHT22;37855;53.204;6.568;2023-11-21T05:29:12;9.10;86.70
51801;DHT22;37855;53.204;6.568;2023-11-21T05:31:38;9.10;86.60
51801;DHT22;37855;53.204;6.568;2023-11-21T05:34:05;9.10;86.80
51801;DHT22;37855;53.204;6.568;2023-11-21T05:36:31;9.10;86.80
51801;DHT22;37855;53.204;6.568;2023-11-21T05:38:56;9.10;86.70
51801;DHT22;37855;53.204;6.568;2023-11-21T05:41:22;9.00;86.70
51801;DHT22;37855;53.204;6.568;2023-11-21T05:43:48;9.00;86.60
51801;DHT22;37855;53.204;6.568;2023-11-21T05:46:14;9.00;86.40
51801;DHT22;37855;53.204;6.568;2023-11-21T05:48:40;9.00;86.40
51801;DHT22;37855;53.204;6.568;2023-11-21T05:51:07;9.00;86.40
51801;DHT22;37855;53.204;6.568;2023-11-21T05:53:33;9.00;86.50
51801;DHT22;37855;53.204;6.568;2023-11-21T05:56:00;9.00;86.60
51801;DHT22;37855;53.204;6.568;2023-11-21T05:58:25;9.00;86.50
51801;DHT22;37855;53.204;6.568;2023-11-21T06:00:51;9.00;86.50
51801;DHT22;37855;53.204;6.568;2023-11-21T06:03:17;9.00;86.50
51801;DHT22;37855;53.204;6.568;2023-11-21T06:05:43;9.00;86.50
51801;DHT22;37855;53.204;6.568;2023-11-21T06:08:09;9.00;86.50
51801;DHT22;37855;53.204;6.568;2023-11-21T06:10:36;9.00;86.50
51801;DHT22;37855;53.204;6.568;2023-11-21T06:13:01;9.00;86.50
51801;DHT22;37855;53.204;6.568;2023-11-21T06:15:31;9.00;86.40
51801;DHT22;37855;53.204;6.568;2023-11-21T06:17:57;9.10;86.40
51801;DHT22;37855;53.204;6.568;2023-11-21T06:20:22;9.10;86.30
51801;DHT22;37855;53.204;6.568;2023-11-21T06:22:49;9.10;86.30
51801;DHT22;37855;53.204;6.568;2023-11-21T06:25:17;9.00;86.30
51801;DHT22;37855;53.204;6.568;2023-11-21T06:27:44;9.00;86.00
51801;DHT22;37855;53.204;6.568;2023-11-21T06:30:13;9.00;86.20
51801;DHT22;37855;53.204;6.568;2023-11-21T06:32:42;8.90;86.60
51801;DHT22;37855;53.204;6.568;2023-11-21T06:35:12;8.90;86.40
51801;DHT22;37855;53.204;6.568;2023-11-21T06:37:38;8.90;86.20
51801;DHT22;37855;53.204;6.568;2023-11-21T06:40:04;8.90;86.10
51801;DHT22;37855;53.204;6.568;2023-11-21T06:42:32;8.80;86.30
51801;DHT22;37855;53.204;6.568;2023-11-21T06:44:59;8.80;86.40
51801;DHT22;37855;53.204;6.568;2023-11-21T06:47:29;8.80;86.50
51801;DHT22;37855;53.204;6.568;2023-11-21T06:49:56;8.80;86.40
51801;DHT22;37855;53.204;6.568;2023-11-21T06:52:22;8.80;86.50
51801;DHT22;37855;53.204;6.568;2023-11-21T06:54:49;8.80;86.20
51801;DHT22;37855;53.204;6.568;2023-11-21T06:57:15;8.80;86.20
51801;DHT22;37855;53.204;6.568;2023-11-21T06:59:41;8.80;86.30
51801;DHT22;37855;53.204;6.568;2023-11-21T07:02:07;8.80;86.30
51801;DHT22;37855;53.204;6.568;2023-11-21T07:04:33;8.80;86.30
51801;DHT22;37855;53.204;6.568;2023-11-21T07:06:59;8.60;86.20
51801;DHT22;37855;53.204;6.568;2023-11-21T07:09:28;8.60;86.30
51801;DHT22;37855;53.204;6.568;2023-11-21T07:11:55;8.60;86.50
51801;DHT22;37855;53.204;6.568;2023-11-21T07:14:24;8.60;86.40
51801;DHT22;37855;53.204;6.568;2023-11-21T07:16:50;8.60;86.40
51801;DHT22;37855;53.204;6.568;2023-11-21T07:19:17;8.60;86.30
51801;DHT22;37855;53.204;6.568;2023-11-21T07:21:45;8.60;86.30
51801;DHT22;37855;53.204;6.568;2023-11-21T07:24:11;8.60;86.30
51801;DHT22;37855;53.204;6.568;2023-11-21T07:26:37;8.60;86.40
51801;DHT22;37855;53.204;6.568;2023-11-21T07:29:03;8.60;86.10
51801;DHT22;37855;53.204;6.568;2023-11-21T07:31:29;8.50;86.10
51801;DHT22;37855;53.204;6.568;2023-11-21T07:33:54;8.50;86.10
51801;DHT22;37855;53.204;6.568;2023-11-21T07:36:23;8.50;86.20
51801;DHT22;37855;53.204;6.568;2023-11-21T07:38:52;8.50;86.00
51801;DHT22;37855;53.204;6.568;2023-11-21T07:41:18;8.50;86.00
51801;DHT22;37855;53.204;6.568;2023-11-21T07:43:45;8.50;85.90
51801;DHT22;37855;53.204;6.568;2023-11-21T07:46:12;8.50;85.60
51801;DHT22;37855;53.204;6.568;2023-11-21T07:48:42;8.50;85.80
51801;DHT22;37855;53.204;6.568;2023-11-21T07:51:08;8.50;85.90
51801;DHT22;37855;53.204;6.568;2023-11-21T07:53:36;8.40;85.80
51801;DHT22;37855;53.204;6.568;2023-11-21T07:56:04;8.50;85.90
51801;DHT22;37855;53.204;6.568;2023-11-21T07:58:30;8.40;85.70
51801;DHT22;37855;53.204;6.568;2023-11-21T08:00:59;8.40;85.80
51801;DHT22;37855;53.204;6.568;2023-11-21T08:03:25;8.40;85.80
51801;DHT22;37855;53.204;6.568;2023-11-21T08:05:52;8.40;85.70
51801;DHT22;37855;53.204;6.568;2023-11-21T08:08:18;8.30;85.50
51801;DHT22;37855;53.204;6.568;2023-11-21T08:10:47;8.30;85.80
51801;DHT22;37855;53.204;6.568;2023-11-21T08:13:24;8.30;85.70
51801;DHT22;37855;53.204;6.568;2023-11-21T08:15:57;8.30;85.70
51801;DHT22;37855;53.204;6.568;2023-11-21T08:18:29;8.30;85.60
51801;DHT22;37855;53.204;6.568;2023-11-21T08:20:55;8.40;85.50
51801;DHT22;37855;53.204;6.568;2023-11-21T08:23:21;8.40;85.50
51801;DHT22;37855;53.204;6.568;2023-11-21T08:25:57;8.50;85.50
51801;DHT22;37855;53.204;6.568;2023-11-21T08:28:23;8.40;85.30
51801;DHT22;37855;53.204;6.568;2023-11-21T08:30:53;8.40;85.40
51801;DHT22;37855;53.204;6.568;2023-11-21T08:33:22;8.40;85.60
51801;DHT22;37855;53.204;6.568;2023-11-21T08:35:48;8.40;85.60
51801;DHT22;37855;53.204;6.568;2023-11-21T08:38:17;8.50;85.30
51801;DHT22;37855;53.204;6.568;2023-11-21T08:40:43;8.50;85.30
51801;DHT22;37855;53.204;6.568;2023-11-21T08:43:08;8.40;85.30
51801;DHT22;37855;53.204;6.568;2023-11-21T08:45:37;8.50;85.30
51801;DHT22;37855;53.204;6.568;2023-11-21T08:48:03;8.40;85.10
51801;DHT22;37855;53.204;6.568;2023-11-21T08:50:29;8.40;85.10
51801;DHT22;37855;53.204;6.568;2023-11-21T08:52:56;8.40;85.00
51801;DHT22;37855;53.204;6.568;2023-11-21T08:55:22;8.30;84.40
51801;DHT22;37855;53.204;6.568;2023-11-21T08:57:48;8.30;84.80
51801;DHT22;37855;53.204;6.568;2023-11-21T09:00:15;8.20;84.30
51801;DHT22;37855;53.204;6.568;2023-11-21T09:02:42;8.20;84.50
51801;DHT22;37855;53.204;6.568;2023-11-21T09:05:12;8.20;84.20
51801;DHT22;37855;53.204;6.568;2023-11-21T09:07:40;8.30;83.80
51801;DHT22;37855;53.204;6.568;2023-11-21T09:10:07;8.20;83.90
51801;DHT22;37855;53.204;6.568;2023-11-21T09:12:33;8.20;83.40
51801;DHT22;37855;53.204;6.568;2023-11-21T09:15:02;8.20;83.60
51801;DHT22;37855;53.204;6.568;2023-11-21T09:17:27;8.20;83.50
51801;DHT22;37855;53.204;6.568;2023-11-21T09:19:53;8.20;83.30
51801;DHT22;37855;53.204;6.568;2023-11-21T09:22:22;8.20;83.50
51801;DHT22;37855;53.204;6.568;2023-11-21T09:24:50;8.20;83.40
51801;DHT22;37855;53.204;6.568;2023-11-21T09:27:16;8.30;83.10
51801;DHT22;37855;53.204;6.568;2023-11-21T09:29:43;8.20;83.20
51801;DHT22;37855;53.204;6.568;2023-11-21T09:32:08;8.10;83.30
51801;DHT22;37855;53.204;6.568;2023-11-21T09:34:38;8.20;82.90
51801;DHT22;37855;53.204;6.568;2023-11-21T09:37:07;8.10;83.20
51801;DHT22;37855;53.204;6.568;2023-11-21T09:39:33;8.10;82.90
51801;DHT22;37855;53.204;6.568;2023-11-21T09:44:48;8.10;83.20
51801;DHT22;37855;53.204;6.568;2023-11-21T09:47:17;8.10;83.20
51801;DHT22;37855;53.204;6.568;2023-11-21T09:49:48;8.10;83.10
51801;DHT22;37855;53.204;6.568;2023-11-21T09:52:28;8.10;83.10
51801;DHT22;37855;53.204;6.568;2023-11-21T09:54:55;8.10;82.80
51801;DHT22;37855;53.204;6.568;2023-11-21T09:57:25;8.10;82.70
51801;DHT22;37855;53.204;6.568;2023-11-21T09:59:51;8.00;82.80
51801;DHT22;37855;53.204;6.568;2023-11-21T10:02:17;8.10;82.60
51801;DHT22;37855;53.204;6.568;2023-11-21T10:04:46;8.10;82.10
51801;DHT22;37855;53.204;6.568;2023-11-21T10:07:13;8.20;81.70
51801;DHT22;37855;53.204;6.568;2023-11-21T10:09:41;8.20;81.60
51801;DHT22;37855;53.204;6.568;2023-11-21T10:12:11;8.20;81.40
51801;DHT22;37855;53.204;6.568;2023-11-21T10:14:41;8.10;81.10
51801;DHT22;37855;53.204;6.568;2023-11-21T10:17:08;8.00;81.00
51801;DHT22;37855;53.204;6.568;2023-11-21T10:19:38;8.10;81.30
51801;DHT22;37855;53.204;6.568;2023-11-21T10:22:05;8.10;80.60
51801;DHT22;37855;53.204;6.568;2023-11-21T10:24:32;8.10;81.00
51801;DHT22;37855;53.204;6.568;2023-11-21T10:26:58;8.10;80.50
51801;DHT22;37855;53.204;6.568;2023-11-21T10:29:30;8.10;80.60
51801;DHT22;37855;53.204;6.568;2023-11-21T10:31:56;8.10;80.20
51801;DHT22;37855;53.204;6.568;2023-11-21T10:34:27;8.10;79.80
51801;DHT22;37855;53.204;6.568;2023-11-21T10:36:54;8.10;80.00
51801;DHT22;37855;53.204;6.568;2023-11-21T10:39:23;8.10;79.10
51801;DHT22;37855;53.204;6.568;2023-11-21T10:41:54;8.10;78.60
51801;DHT22;37855;53.204;6.568;2023-11-21T10:44:20;8.10;78.60
51801;DHT22;37855;53.204;6.568;2023-11-21T10:46:55;8.20;79.10
51801;DHT22;37855;53.204;6.568;2023-11-21T10:49:23;8.10;78.50
51801;DHT22;37855;53.204;6.568;2023-11-21T10:51:53;8.20;77.50
51801;DHT22;37855;53.204;6.568;2023-11-21T10:54:20;8.10;76.70
51801;DHT22;37855;53.204;6.568;2023-11-21T10:56:50;8.10;77.10
51801;DHT22;37855;53.204;6.568;2023-11-21T10:59:18;8.00;77.70
51801;DHT22;37855;53.204;6.568;2023-11-21T11:01:47;8.10;77.50
51801;DHT22;37855;53.204;6.568;2023-11-21T11:04:18;8.20;77.10
51801;DHT22;37855;53.204;6.568;2023-11-21T11:06:54;8.10;77.10
51801;DHT22;37855;53.204;6.568;2023-11-21T11:11:48;8.20;77.00
51801;DHT22;37855;53.204;6.568;2023-11-21T11:14:14;8.20;76.60
51801;DHT22;37855;53.204;6.568;2023-11-21T11:16:42;8.20;77.00
51801;DHT22;37855;53.204;6.568;2023-11-21T11:19:09;8.20;75.70
51801;DHT22;37855;53.204;6.568;2023-11-21T11:24:49;8.20;75.10
51801;DHT22;37855;53.204;6.568;2023-11-21T11:32:58;8.30;74.40
51801;DHT22;37855;53.204;6.568;2023-11-21T11:35:50;8.40;74.70
51801;DHT22;37855;53.204;6.568;2023-11-21T11:38:21;8.40;72.70
51801;DHT22;37855;53.204;6.568;2023-11-21T11:40:47;8.40;72.40
51801;DHT22;37855;53.204;6.568;2023-11-21T11:43:14;8.40;72.80
51801;DHT22;37855;53.204;6.568;2023-11-21T11:45:49;8.40;73.30
51801;DHT22;37855;53.204;6.568;2023-11-21T11:48:17;8.50;73.30
51801;DHT22;37855;53.204;6.568;2023-11-21T11:51:13;8.40;73.60
51801;DHT22;37855;53.204;6.568;2023-11-21T11:53:49;8.50;74.00
51801;DHT22;37855;53.204;6.568;2023-11-21T11:58:50;8.60;73.40
51801;DHT22;37855;53.204;6.568;2023-11-21T12:01:19;8.70;72.70
51801;DHT22;37855;53.204;6.568;2023-11-21T12:04:10;8.70;73.30
51801;DHT22;37855;53.204;6.568;2023-11-21T12:06:33;8.70;72.30
51801;DHT22;37855;53.204;6.568;2023-11-21T12:09:02;8.80;71.80
51801;DHT22;37855;53.204;6.568;2023-11-21T12:11:31;8.80;70.70
51801;DHT22;37855;53.204;6.568;2023-11-21T12:13:58;8.70;70.70
51801;DHT22;37855;53.204;6.568;2023-11-21T12:16:25;8.80;71.60
51801;DHT22;37855;53.204;6.568;2023-11-21T12:18:53;8.80;70.60
51801;DHT22;37855;53.204;6.568;2023-11-21T12:21:20;8.70;70.60
51801;DHT22;37855;53.204;6.568;2023-11-21T12:23:46;8.70;71.10
51801;DHT22;37855;53.204;6.568;2023-11-21T12:26:13;8.70;71.80
51801;DHT22;37855;53.204;6.568;2023-11-21T12:28:39;8.80;71.70
51801;DHT22;37855;53.204;6.568;2023-11-21T12:31:06;8.80;71.60
51801;DHT22;37855;53.204;6.568;2023-11-21T12:33:35;8.70;72.00
51801;DHT22;37855;53.204;6.568;2023-11-21T12:36:01;8.80;71.80
51801;DHT22;37855;53.204;6.568;2023-11-21T12:38:34;8.80;72.00
51801;DHT22;37855;53.204;6.568;2023-11-21T12:41:00;8.70;72.40
51801;DHT22;37855;53.204;6.568;2023-11-21T12:43:26;8.80;72.30
51801;DHT22;37855;53.204;6.568;2023-11-21T12:46:08;8.70;72.50
51801;DHT22;37855;53.204;6.568;2023-11-21T12:48:41;8.70;73.20
51801;DHT22;37855;53.204;6.568;2023-11-21T12:51:10;8.70;72.90
51801;DHT22;37855;53.204;6.568;2023-11-21T12:53:38;8.70;73.30
51801;DHT22;37855;53.204;6.568;2023-11-21T12:56:11;8.70;73.30
51801;DHT22;37855;53.204;6.568;2023-11-21T12:58:37;8.80;73.50
51801;DHT22;37855;53.204;6.568;2023-11-21T13:01:06;8.80;73.20
51801;DHT22;37855;53.204;6.568;2023-11-21T13:03:38;8.90;72.70
51801;DHT22;37855;53.204;6.568;2023-11-21T13:06:05;8.80;73.10
51801;DHT22;37855;53.204;6.568;2023-11-21T13:08:31;8.90;72.30
51801;DHT22;37855;53.204;6.568;2023-11-21T13:10:58;8.90;72.40
51801;DHT22;37855;53.204;6.568;2023-11-21T13:13:25;8.80;72.50
51801;DHT22;37855;53.204;6.568;2023-11-21T13:15:59;8.70;72.40
51801;DHT22;37855;53.204;6.568;2023-11-21T13:18:29;8.70;72.80
51801;DHT22;37855;53.204;6.568;2023-11-21T13:21:01;8.70;73.30
51801;DHT22;37855;53.204;6.568;2023-11-21T13:23:34;8.80;73.10
51801;DHT22;37855;53.204;6.568;2023-11-21T13:26:01;8.80;73.10
51801;DHT22;37855;53.204;6.568;2023-11-21T13:28:29;8.70;73.50
51801;DHT22;37855;53.204;6.568;2023-11-21T13:31:01;8.70;73.20
51801;DHT22;37855;53.204;6.568;2023-11-21T13:33:36;8.60;71.80
51801;DHT22;37855;53.204;6.568;2023-11-21T13:36:06;8.50;72.80
51801;DHT22;37855;53.204;6.568;2023-11-21T13:38:34;8.50;72.80
51801;DHT22;37855;53.204;6.568;2023-11-21T13:41:01;8.60;73.40
51801;DHT22;37855;53.204;6.568;2023-11-21T13:43:28;8.60;72.90
51801;DHT22;37855;53.204;6.568;2023-11-21T13:45:54;8.60;72.70
51801;DHT22;37855;53.204;6.568;2023-11-21T13:48:38;8.60;73.10
51801;DHT22;37855;53.204;6.568;2023-11-21T13:51:09;8.50;73.60
51801;DHT22;37855;53.204;6.568;2023-11-21T13:53:47;8.50;73.80
51801;DHT22;37855;53.204;6.568;2023-11-21T13:56:15;8.50;74.40
51801;DHT22;37855;53.204;6.568;2023-11-21T13:58:45;8.50;74.30
51801;DHT22;37855;53.204;6.568;2023-11-21T14:01:18;8.50;74.70
51801;DHT22;37855;53.204;6.568;2023-11-21T14:03:49;8.50;74.80
51801;DHT22;37855;53.204;6.568;2023-11-21T14:06:22;8.40;75.20
51801;DHT22;37855;53.204;6.568;2023-11-21T14:08:52;8.40;75.50
51801;DHT22;37855;53.204;6.568;2023-11-21T14:11:22;8.40;75.90
51801;DHT22;37855;53.204;6.568;2023-11-21T14:13:48;8.40;75.90
51801;DHT22;37855;53.204;6.568;2023-11-21T14:16:17;8.30;76.20
51801;DHT22;37855;53.204;6.568;2023-11-21T14:18:44;8.30;76.40
51801;DHT22;37855;53.204;6.568;2023-11-21T14:21:24;8.30;76.40
51801;DHT22;37855;53.204;6.568;2023-11-21T14:23:49;8.40;75.90
51801;DHT22;37855;53.204;6.568;2023-11-21T14:26:15;8.40;75.60
51801;DHT22;37855;53.204;6.568;2023-11-21T14:28:45;8.40;75.00
51801;DHT22;37855;53.204;6.568;2023-11-21T14:31:13;8.20;75.10
51801;DHT22;37855;53.204;6.568;2023-11-21T14:33:43;8.20;75.50
51801;DHT22;37855;53.204;6.568;2023-11-21T14:36:09;8.20;75.00
51801;DHT22;37855;53.204;6.568;2023-11-21T14:38:38;8.30;75.30
51801;DHT22;37855;53.204;6.568;2023-11-21T14:41:05;8.30;74.90
51801;DHT22;37855;53.204;6.568;2023-11-21T14:43:34;8.20;75.10
51801;DHT22;37855;53.204;6.568;2023-11-21T14:46:01;8.30;74.90
51801;DHT22;37855;53.204;6.568;2023-11-21T14:48:32;8.30;74.60
51801;DHT22;37855;53.204;6.568;2023-11-21T14:51:13;8.30;74.10
51801;DHT22;37855;53.204;6.568;2023-11-21T14:53:59;8.30;74.70
51801;DHT22;37855;53.204;6.568;2023-11-21T14:56:32;8.20;74.50
51801;DHT22;37855;53.204;6.568;2023-11-21T14:59:01;8.20;74.90
51801;DHT22;37855;53.204;6.568;2023-11-21T15:01:41;8.20;74.90
51801;DHT22;37855;53.204;6.568;2023-11-21T15:04:22;8.30;74.70
51801;DHT22;37855;53.204;6.568;2023-11-21T15:07:05;8.20;74.80
51801;DHT22;37855;53.204;6.568;2023-11-21T15:09:31;8.20;74.50
51801;DHT22;37855;53.204;6.568;2023-11-21T15:11:57;8.10;74.90
51801;DHT22;37855;53.204;6.568;2023-11-21T15:14:29;8.10;73.80
51801;DHT22;37855;53.204;6.568;2023-11-21T15:17:00;8.10;74.30
51801;DHT22;37855;53.204;6.568;2023-11-21T15:19:26;8.00;74.50
51801;DHT22;37855;53.204;6.568;2023-11-21T15:21:53;8.00;74.60
51801;DHT22;37855;53.204;6.568;2023-11-21T15:24:19;8.00;74.60
51801;DHT22;37855;53.204;6.568;2023-11-21T15:26:45;8.00;74.30
51801;DHT22;37855;53.204;6.568;2023-11-21T15:29:10;8.00;74.00
51801;DHT22;37855;53.204;6.568;2023-11-21T15:31:36;8.00;74.20
51801;DHT22;37855;53.204;6.568;2023-11-21T15:34:03;8.00;73.70
51801;DHT22;37855;53.204;6.568;2023-11-21T15:36:31;7.90;74.10
51801;DHT22;37855;53.204;6.568;2023-11-21T15:38:57;7.90;74.20
51801;DHT22;37855;53.204;6.568;2023-11-21T15:41:23;7.80;74.50
51801;DHT22;37855;53.204;6.568;2023-11-21T15:43:49;7.80;74.90
51801;DHT22;37855;53.204;6.568;2023-11-21T15:46:16;7.70;75.10
51801;DHT22;37855;53.204;6.568;2023-11-21T15:48:45;7.70;75.20
51801;DHT22;37855;53.204;6.568;2023-11-21T15:51:16;7.70;75.10
51801;DHT22;37855;53.204;6.568;2023-11-21T15:53:42;7.70;75.30
51801;DHT22;37855;53.204;6.568;2023-11-21T15:56:08;7.60;75.40
51801;DHT22;37855;53.204;6.568;2023-11-21T15:58:38;7.50;75.40
51801;DHT22;37855;53.204;6.568;2023-11-21T16:01:09;7.50;75.50
51801;DHT22;37855;53.204;6.568;2023-11-21T16:03:36;7.40;75.70
51801;DHT22;37855;53.204;6.568;2023-11-21T16:06:02;7.40;75.60